Terminal Aerodrome Forecast
Issued by NWS

Home | Current Version | Previous Version | Text Only | Print | Product List | Glossary On
Versions: 1 2 3 4 5 6 7 8 9 10 11 12 13 14
000
FTUS44 KLZK 311700
TAFADF
TAF
KADF 311720Z 3118/0118 09005KT P6SM VCSH OVC025
      TEMPO 3118/3122 2SM -RA BR BKN005 OVC015
     FM010300 09003KT P6SM VCSH SCT015 OVC040
      TEMPO 0108/0112 1/2SM FG OVC015=

USA.gov is the U.S. government's official web portal to all federal, state and local government web resources and services.